Time;durP1;ratioP1;P1;durP2;ratioP2;P2;SDS_P1;SDS_P2;PMS_P1;PMS_P2;Temp;Humidity;BMP_temperature;BMP_pressure;BME280_temperature;BME280_humidity;BME280_pressure;Samples;Min_cycle;Max_cycle;Signal;HPM_P1;HPM_P2
2022/10/27 00:01:12;;;;;;;11.00;5.97;;;17.00;78.10;;;;;;5087769;28;20731;-77
2022/10/27 00:03:41;;;;;;;9.10;5.03;;;17.00;78.10;;;;;;5081543;28;20601;-77
2022/10/27 00:06:09;;;;;;;11.87;4.97;;;17.00;78.10;;;;;;5096469;28;20248;-77
2022/10/27 00:08:37;;;;;;;9.27;4.93;;;16.90;78.00;;;;;;5096006;28;20228;-77
2022/10/27 00:11:07;;;;;;;11.93;4.87;;;16.90;77.90;;;;;;5078288;28;20609;-77
2022/10/27 00:13:36;;;;;;;12.57;5.30;;;16.90;78.00;;;;;;5090487;28;20521;-76
2022/10/27 00:16:08;;;;;;;10.80;5.37;;;16.90;78.00;;;;;;5091833;28;20217;-76
2022/10/27 00:18:37;;;;;;;12.13;5.07;;;16.90;78.00;;;;;;5087802;28;20738;-76
2022/10/27 00:21:09;;;;;;;9.47;4.67;;;16.80;78.00;;;;;;5087796;28;20240;-77
2022/10/27 00:23:37;;;;;;;6.73;4.47;;;16.80;78.00;;;;;;5091259;28;20270;-76
2022/10/27 00:26:07;;;;;;;10.10;5.10;;;16.80;78.00;;;;;;5092845;28;20302;-76
2022/10/27 00:28:35;;;;;;;11.87;5.00;;;16.70;78.00;;;;;;5089399;28;20237;-76
2022/10/27 00:31:06;;;;;;;12.07;5.60;;;16.70;78.00;;;;;;5092089;28;20194;-76
2022/10/27 00:33:34;;;;;;;8.93;4.63;;;16.70;78.00;;;;;;5091017;28;20193;-76
2022/10/27 00:36:09;;;;;;;10.53;4.73;;;16.70;78.00;;;;;;5084546;28;20681;-77
2022/10/27 00:38:38;;;;;;;16.77;5.03;;;16.70;78.00;;;;;;5086589;28;20197;-76
2022/10/27 00:41:07;;;;;;;14.67;5.70;;;16.60;77.80;;;;;;5090749;28;20240;-76
2022/10/27 00:43:37;;;;;;;10.57;5.47;;;16.60;77.80;;;;;;5094412;28;20224;-77
2022/10/27 00:46:17;;;;;;;11.27;5.03;;;16.70;77.90;;;;;;5091431;28;20289;-76
2022/10/27 00:48:46;;;;;;;10.30;5.10;;;16.60;77.80;;;;;;5091906;28;20272;-76
2022/10/27 00:51:18;;;;;;;10.93;4.87;;;16.60;77.70;;;;;;5087724;28;20198;-77
2022/10/27 00:53:48;;;;;;;11.43;4.87;;;16.50;77.70;;;;;;5081539;28;20222;-76
2022/10/27 00:56:17;;;;;;;8.97;4.37;;;16.50;77.70;;;;;;5086575;28;20247;-76
2022/10/27 00:58:46;;;;;;;10.30;4.87;;;16.50;77.70;;;;;;5088443;28;20611;-76
2022/10/27 01:01:15;;;;;;;8.27;4.27;;;16.50;77.70;;;;;;5103414;28;20224;-76
2022/10/27 01:03:45;;;;;;;9.47;4.60;;;16.50;77.60;;;;;;5096429;28;20599;-76
2022/10/27 01:06:13;;;;;;;10.10;4.20;;;16.50;77.70;;;;;;5084861;28;20280;-76
2022/10/27 01:08:44;;;;;;;7.80;4.27;;;16.50;77.60;;;;;;5093498;28;20193;-76
2022/10/27 01:11:12;;;;;;;12.43;4.63;;;16.50;77.60;;;;;;5089898;28;20685;-77
2022/10/27 01:13:40;;;;;;;6.47;3.80;;;16.50;77.70;;;;;;5086731;28;20233;-76
2022/10/27 01:16:23;;;;;;;7.80;4.23;;;16.50;77.60;;;;;;5089870;28;20644;-77
2022/10/27 01:19:03;;;;;;;7.30;4.10;;;16.50;77.70;;;;;;5086353;28;20197;-76
2022/10/27 01:21:53;;;;;;;8.20;4.13;;;16.40;77.70;;;;;;5087716;28;20759;-77
2022/10/27 01:24:50;;;;;;;7.80;3.87;;;16.40;77.70;;;;;;5086694;28;20190;-76
2022/10/27 01:27:41;;;;;;;9.00;3.37;;;16.40;77.70;;;;;;5087984;28;20197;-77
2022/10/27 01:30:12;;;;;;;6.43;3.03;;;16.30;77.60;;;;;;5084013;28;20189;-78
2022/10/27 01:32:57;;;;;;;7.10;4.33;;;16.30;77.70;;;;;;5091515;28;20238;-76
2022/10/27 01:35:32;;;;;;;7.50;3.43;;;16.30;77.70;;;;;;5081808;28;20682;-77
2022/10/27 01:38:09;;;;;;;7.53;3.23;;;16.30;77.80;;;;;;5084835;28;20214;-76
2022/10/27 01:40:43;;;;;;;9.60;3.50;;;16.30;77.80;;;;;;5088831;28;20240;-76
2022/10/27 01:43:17;;;;;;;7.30;3.90;;;16.30;77.80;;;;;;5086288;28;20278;-77
2022/10/27 01:45:47;;;;;;;8.00;3.83;;;16.30;77.90;;;;;;5097566;28;20225;-76
2022/10/27 01:48:17;;;;;;;5.63;3.17;;;16.30;77.80;;;;;;5103616;28;20693;-76
2022/10/27 01:50:46;;;;;;;6.20;3.47;;;16.30;77.80;;;;;;5093570;28;20186;-76
2022/10/27 01:53:30;;;;;;;5.73;3.30;;;16.30;77.80;;;;;;5089810;28;20253;-76
2022/10/27 01:56:15;;;;;;;6.57;3.17;;;16.30;77.80;;;;;;5105872;28;20228;-76
2022/10/27 01:59:03;;;;;;;6.80;2.83;;;16.30;77.80;;;;;;5088709;28;20194;-76
2022/10/27 02:01:46;;;;;;;5.80;2.97;;;16.30;77.90;;;;;;5097033;28;20193;-76
2022/10/27 02:04:22;;;;;;;7.13;3.03;;;16.40;78.00;;;;;;5093248;28;20250;-76
2022/10/27 02:06:56;;;;;;;6.80;3.00;;;16.40;78.00;;;;;;5095745;28;20194;-77
2022/10/27 02:09:35;;;;;;;6.20;2.77;;;16.40;78.00;;;;;;5087048;28;20240;-76
2022/10/27 02:12:08;;;;;;;6.80;3.50;;;16.40;78.00;;;;;;5096907;28;20257;-77
2022/10/27 02:14:37;;;;;;;9.53;3.63;;;16.40;78.00;;;;;;5090260;28;20228;-77
2022/10/27 02:17:09;;;;;;;7.87;3.30;;;16.40;78.00;;;;;;5094298;28;20231;-76
2022/10/27 02:19:42;;;;;;;6.37;3.00;;;16.40;78.00;;;;;;5101888;28;20254;-77
2022/10/27 02:22:12;;;;;;;6.47;3.17;;;16.40;77.90;;;;;;5091514;28;20208;-77
2022/10/27 02:24:40;;;;;;;6.05;3.53;;;16.40;77.80;;;;;;5088188;28;20466;-76
2022/10/27 02:27:13;;;;;;;7.57;3.27;;;16.50;78.00;;;;;;5096309;28;20654;-77
2022/10/27 02:29:44;;;;;;;6.33;2.50;;;16.50;78.00;;;;;;5101171;28;20213;-76
2022/10/27 02:32:17;;;;;;;4.53;2.60;;;16.50;78.00;;;;;;5090014;28;20224;-76
2022/10/27 02:34:49;;;;;;;6.73;2.87;;;16.50;77.80;;;;;;5094165;28;20197;-76
2022/10/27 02:37:20;;;;;;;5.60;3.00;;;16.50;77.80;;;;;;5088446;28;20671;-77
2022/10/27 02:39:48;;;;;;;6.00;2.77;;;16.50;77.80;;;;;;5093831;28;20213;-76
2022/10/27 02:42:17;;;;;;;6.53;3.13;;;16.50;77.70;;;;;;5092379;28;20288;-78
2022/10/27 02:44:45;;;;;;;5.20;2.80;;;16.60;77.70;;;;;;5090730;28;20228;-76
2022/10/27 02:47:13;;;;;;;3.67;2.43;;;16.60;77.70;;;;;;5097801;28;20225;-77
2022/10/27 02:49:43;;;;;;;6.43;3.10;;;16.60;77.60;;;;;;5093559;28;20257;-76
2022/10/27 02:52:13;;;;;;;5.37;3.00;;;16.60;77.50;;;;;;5090486;28;20301;-77
2022/10/27 02:54:46;;;;;;;8.43;3.27;;;16.60;77.40;;;;;;5081298;28;20250;-77
2022/10/27 02:57:16;;;;;;;5.97;3.23;;;16.60;77.40;;;;;;5088356;28;20225;-77
2022/10/27 02:59:44;;;;;;;7.03;3.20;;;16.60;77.20;;;;;;5089923;28;20284;-76
2022/10/27 03:02:21;;;;;;;5.73;3.07;;;16.60;77.20;;;;;;5098280;28;20217;-77
2022/10/27 03:04:51;;;;;;;6.43;3.30;;;16.60;77.20;;;;;;5084062;28;20225;-77
2022/10/27 03:07:20;;;;;;;7.27;3.03;;;16.60;77.10;;;;;;5091429;28;20575;-76
2022/10/27 03:09:48;;;;;;;6.53;2.60;;;16.60;77.10;;;;;;5089365;28;20630;-76
2022/10/27 03:12:17;;;;;;;5.20;2.83;;;16.50;77.00;;;;;;5100102;28;20237;-76
2022/10/27 03:14:45;;;;;;;5.07;2.50;;;16.60;77.10;;;;;;5092805;28;20251;-76
2022/10/27 03:17:13;;;;;;;5.10;2.97;;;16.60;77.00;;;;;;5086982;28;20654;-76
2022/10/27 03:19:41;;;;;;;5.20;2.90;;;16.60;77.10;;;;;;5086484;28;20225;-76
2022/10/27 03:22:10;;;;;;;5.93;2.33;;;16.50;76.90;;;;;;5095730;28;20271;-77
2022/10/27 03:24:39;;;;;;;5.83;2.90;;;16.50;77.00;;;;;;5097465;28;20293;-76
2022/10/27 03:27:08;;;;;;;10.30;3.30;;;16.50;77.00;;;;;;5088051;28;20198;-76
2022/10/27 03:29:36;;;;;;;5.60;3.00;;;16.50;77.10;;;;;;5096192;28;20218;-76
2022/10/27 03:32:05;;;;;;;4.63;2.60;;;16.50;77.10;;;;;;5088267;28;20651;-76
2022/10/27 03:34:33;;;;;;;8.03;3.33;;;16.50;77.30;;;;;;5090206;28;20248;-76
2022/10/27 03:37:01;;;;;;;9.10;3.07;;;16.50;77.20;;;;;;5084999;28;20289;-76
2022/10/27 03:39:29;;;;;;;7.70;3.20;;;16.50;77.30;;;;;;5099112;28;20276;-76
2022/10/27 03:41:59;;;;;;;8.50;3.00;;;16.50;77.40;;;;;;5091075;28;20208;-76
2022/10/27 03:44:27;;;;;;;6.43;3.27;;;16.50;77.40;;;;;;5096248;28;20197;-76
2022/10/27 03:46:56;;;;;;;9.13;3.13;;;16.50;77.40;;;;;;5094518;28;20197;-76
2022/10/27 03:49:24;;;;;;;7.43;3.37;;;16.50;77.40;;;;;;5088385;28;20210;-76
2022/10/27 03:51:52;;;;;;;7.27;2.97;;;16.50;77.40;;;;;;5094975;28;20645;-77
2022/10/27 03:54:20;;;;;;;6.80;3.53;;;16.50;77.40;;;;;;5088235;28;20221;-77
2022/10/27 03:56:49;;;;;;;6.33;2.97;;;16.50;77.40;;;;;;5090748;28;20280;-76
2022/10/27 03:59:18;;;;;;;5.90;3.77;;;16.50;77.40;;;;;;5092493;28;20213;-76
2022/10/27 04:01:47;;;;;;;6.93;3.50;;;16.50;77.40;;;;;;5088318;28;20247;-77
2022/10/27 04:04:16;;;;;;;6.63;3.40;;;16.50;77.40;;;;;;5085923;28;20204;-76
2022/10/27 04:06:44;;;;;;;6.53;3.00;;;16.50;77.40;;;;;;5090515;28;20255;-76
2022/10/27 04:09:12;;;;;;;9.53;3.20;;;16.50;77.30;;;;;;5096485;28;20249;-76
2022/10/27 04:11:41;;;;;;;5.00;3.10;;;16.50;77.20;;;;;;5088917;28;20228;-77
2022/10/27 04:14:12;;;;;;;7.10;3.37;;;16.50;77.30;;;;;;5090030;28;20254;-76
2022/10/27 04:16:42;;;;;;;6.00;2.93;;;16.50;77.20;;;;;;5091641;28;20233;-76
2022/10/27 04:19:11;;;;;;;6.10;3.23;;;16.50;77.20;;;;;;5088871;28;20651;-76
2022/10/27 04:21:39;;;;;;;4.63;3.00;;;16.50;77.20;;;;;;5097305;28;20206;-76
2022/10/27 04:24:07;;;;;;;6.10;3.70;;;16.50;77.10;;;;;;5091130;28;20202;-77
2022/10/27 04:26:36;;;;;;;5.90;3.30;;;16.50;77.10;;;;;;5093466;28;20275;-77
2022/10/27 04:29:04;;;;;;;5.67;2.90;;;16.50;77.00;;;;;;5091659;28;20306;-77
2022/10/27 04:31:32;;;;;;;5.23;2.80;;;16.50;77.00;;;;;;5094310;28;20228;-76
2022/10/27 04:34:02;;;;;;;5.57;3.27;;;16.50;77.00;;;;;;5098121;28;20228;-77
2022/10/27 04:36:30;;;;;;;5.27;3.00;;;16.50;77.00;;;;;;5094021;28;20559;-77
2022/10/27 04:38:59;;;;;;;7.73;3.00;;;16.50;76.90;;;;;;5104468;28;20470;-76
2022/10/27 04:41:27;;;;;;;5.93;3.10;;;16.50;77.00;;;;;;5092285;28;20209;-78
2022/10/27 04:43:55;;;;;;;7.63;3.00;;;16.40;77.10;;;;;;5093502;28;20225;-77
2022/10/27 04:46:24;;;;;;;5.53;2.93;;;16.40;77.10;;;;;;5092166;28;20201;-77
2022/10/27 04:48:52;;;;;;;12.10;3.73;;;16.30;77.10;;;;;;5095606;28;20270;-76
2022/10/27 04:51:22;;;;;;;4.63;2.70;;;16.30;77.10;;;;;;5095904;28;20738;-76
2022/10/27 04:53:52;;;;;;;5.67;3.10;;;16.30;77.10;;;;;;5085290;28;20238;-76
2022/10/27 04:56:21;;;;;;;6.80;3.37;;;16.20;77.20;;;;;;5071470;28;20263;-76
2022/10/27 04:58:49;;;;;;;5.87;3.33;;;16.20;77.20;;;;;;5068433;28;20194;-76
2022/10/27 05:01:17;;;;;;;4.73;2.90;;;16.20;77.20;;;;;;5065746;28;20221;-77
2022/10/27 05:03:47;;;;;;;11.55;4.03;;;16.20;77.30;;;;;;5071163;28;20948;-77
2022/10/27 05:06:16;;;;;;;9.37;3.63;;;16.10;78.00;;;;;;5070029;28;20199;-75
2022/10/27 05:08:47;;;;;;;9.93;3.30;;;16.10;77.80;;;;;;5068969;28;20249;-76
2022/10/27 05:11:52;;;;;;;6.53;3.23;;;16.10;77.80;;;;;;5078502;28;20224;-77
2022/10/27 05:14:38;;;;;;;11.20;3.40;;;16.10;77.90;;;;;;5066854;28;20210;-77
2022/10/27 05:17:06;;;;;;;10.07;3.77;;;16.10;77.80;;;;;;5067731;28;20234;-77
2022/10/27 05:19:34;;;;;;;9.47;3.13;;;16.10;77.90;;;;;;5070152;28;20651;-77
2022/10/27 05:22:03;;;;;;;7.23;3.77;;;16.10;77.90;;;;;;5074833;28;20712;-77
2022/10/27 05:24:32;;;;;;;7.67;3.90;;;16.10;78.10;;;;;;5070953;28;20194;-76
2022/10/27 05:27:01;;;;;;;6.53;3.70;;;16.20;78.30;;;;;;5072960;28;20193;-77
2022/10/27 05:29:30;;;;;;;10.57;4.10;;;16.20;78.30;;;;;;5067763;28;20305;-77
2022/10/27 05:31:58;;;;;;;8.37;3.40;;;16.10;78.20;;;;;;5066331;28;20248;-77
2022/10/27 05:34:26;;;;;;;7.57;3.47;;;16.20;78.30;;;;;;5068817;28;20255;-78
2022/10/27 05:36:55;;;;;;;6.97;3.63;;;16.20;78.40;;;;;;5080689;28;20208;-77
2022/10/27 05:39:23;;;;;;;7.30;4.40;;;16.20;78.60;;;;;;5072777;28;20226;-77
2022/10/27 05:41:53;;;;;;;7.00;3.97;;;16.20;78.70;;;;;;5080227;28;20655;-77
2022/10/27 05:44:21;;;;;;;12.43;4.20;;;16.30;78.80;;;;;;5075072;28;20248;-77
2022/10/27 05:46:49;;;;;;;8.20;3.93;;;16.30;78.80;;;;;;5080759;28;20256;-77
2022/10/27 05:49:18;;;;;;;9.65;4.20;;;16.30;78.70;;;;;;5067393;28;20527;-77
2022/10/27 05:51:46;;;;;;;8.87;4.10;;;16.40;79.30;;;;;;5072706;28;20206;-76
2022/10/27 05:54:14;;;;;;;7.67;3.87;;;16.40;79.10;;;;;;5069638;28;20230;-77
2022/10/27 05:56:42;;;;;;;8.33;3.83;;;16.40;79.00;;;;;;5070524;28;20233;-76
2022/10/27 05:59:12;;;;;;;6.30;3.53;;;16.40;78.90;;;;;;5065320;28;20229;-76
2022/10/27 06:01:41;;;;;;;7.33;3.53;;;16.50;78.80;;;;;;5071657;28;20209;-77
2022/10/27 06:04:09;;;;;;;8.03;4.27;;;16.60;78.80;;;;;;5073777;28;20201;-77
2022/10/27 06:06:37;;;;;;;8.90;4.27;;;16.60;78.70;;;;;;5071495;28;20234;-76
2022/10/27 06:09:06;;;;;;;6.80;3.90;;;16.70;78.60;;;;;;5070696;28;20214;-77
2022/10/27 06:11:34;;;;;;;10.17;3.90;;;16.70;78.50;;;;;;5079777;28;20276;-77
2022/10/27 06:14:02;;;;;;;9.43;4.33;;;16.70;78.40;;;;;;5073135;28;20199;-77
2022/10/27 06:16:32;;;;;;;11.90;4.17;;;16.70;78.40;;;;;;5071693;28;20234;-78
2022/10/27 06:19:00;;;;;;;10.97;4.20;;;16.80;78.40;;;;;;5070942;28;20233;-77
2022/10/27 06:21:28;;;;;;;7.13;3.77;;;16.80;78.10;;;;;;5079115;28;20260;-78
2022/10/27 06:24:06;;;;;;;12.80;4.53;;;16.90;78.00;;;;;;5077485;28;20256;-77
2022/10/27 06:26:35;;;;;;;8.03;4.27;;;16.90;77.90;;;;;;5076936;28;20199;-78
2022/10/27 06:29:12;;;;;;;9.03;4.23;;;17.00;77.80;;;;;;5074091;28;20202;-79
2022/10/27 06:31:43;;;;;;;9.00;4.37;;;17.00;77.70;;;;;;5077261;28;20186;-77
2022/10/27 06:34:11;;;;;;;11.50;4.63;;;17.10;77.60;;;;;;5075807;28;20202;-76
2022/10/27 06:36:39;;;;;;;10.70;4.70;;;17.10;77.60;;;;;;5074150;28;20609;-76
2022/10/27 06:39:08;;;;;;;11.20;4.83;;;17.20;77.60;;;;;;5071906;28;20198;-76
2022/10/27 06:41:36;;;;;;;9.88;5.45;;;17.20;77.60;;;;;;5070396;28;20459;-77
2022/10/27 06:44:04;;;;;;;8.63;4.97;;;17.30;77.60;;;;;;5081763;28;20618;-76
2022/10/27 06:46:33;;;;;;;11.93;5.03;;;17.30;77.50;;;;;;5073861;28;20613;-76
2022/10/27 06:49:03;;;;;;;9.80;5.13;;;17.40;77.40;;;;;;5073305;28;20686;-77
2022/10/27 06:51:34;;;;;;;10.27;5.07;;;17.40;77.30;;;;;;5071502;28;20205;-75
2022/10/27 06:54:02;;;;;;;13.37;5.27;;;17.50;77.20;;;;;;5073404;28;20234;-77
2022/10/27 06:56:31;;;;;;;13.57;5.40;;;17.50;77.00;;;;;;5086367;28;20199;-78
2022/10/27 06:58:59;;;;;;;9.07;4.50;;;17.50;76.90;;;;;;5077315;28;20210;-78
2022/10/27 07:01:30;;;;;;;8.33;4.90;;;17.60;76.90;;;;;;5070971;28;20254;-78
2022/10/27 07:03:59;;;;;;;15.60;5.80;;;17.60;76.90;;;;;;5075584;28;20194;-77
2022/10/27 07:06:32;;;;;;;10.37;5.23;;;17.70;76.80;;;;;;5071919;28;20203;-78
2022/10/27 07:09:05;;;;;;;7.23;4.63;;;17.70;76.70;;;;;;5071507;28;20229;-77
2022/10/27 07:11:37;;;;;;;10.13;4.77;;;17.70;76.60;;;;;;5075977;28;20223;-76
2022/10/27 07:14:05;;;;;;;9.43;4.67;;;17.70;76.30;;;;;;5075909;28;20711;-77
2022/10/27 07:16:33;;;;;;;10.93;4.77;;;17.80;76.30;;;;;;5066448;28;20225;-76
2022/10/27 07:19:02;;;;;;;13.57;4.60;;;17.80;76.30;;;;;;5074315;28;20275;-77
2022/10/27 07:21:32;;;;;;;15.80;4.50;;;17.90;76.10;;;;;;5072051;28;20221;-75
2022/10/27 07:24:00;;;;;;;11.10;4.37;;;17.90;76.00;;;;;;5071349;28;20202;-76
2022/10/27 07:26:28;;;;;;;9.90;4.50;;;17.90;76.00;;;;;;5073807;28;20202;-75
2022/10/27 07:28:57;;;;;;;9.93;4.33;;;18.00;76.10;;;;;;5072772;28;20234;-75
2022/10/27 07:31:25;;;;;;;9.00;4.37;;;18.10;76.10;;;;;;5069355;28;20218;-77
2022/10/27 07:33:53;;;;;;;8.70;4.07;;;18.10;75.90;;;;;;5071888;28;20229;-76
2022/10/27 07:36:21;;;;;;;10.10;4.00;;;18.20;76.00;;;;;;5069540;28;20274;-77
2022/10/27 07:38:51;;;;;;;5.93;3.80;;;18.30;75.90;;;;;;5068335;28;20234;-76
2022/10/27 07:41:20;;;;;;;8.57;3.83;;;18.30;75.70;;;;;;5071998;28;20194;-76
2022/10/27 07:43:48;;;;;;;10.67;3.87;;;18.40;75.70;;;;;;5070904;28;20218;-76
2022/10/27 07:46:16;;;;;;;9.63;4.07;;;18.50;75.80;;;;;;5070176;28;20217;-76
2022/10/27 07:48:45;;;;;;;11.40;3.57;;;18.60;75.80;;;;;;5070219;28;20194;-76
2022/10/27 07:51:13;;;;;;;11.67;4.20;;;18.60;76.40;;;;;;5067257;28;20234;-77
2022/10/27 07:53:41;;;;;;;8.13;4.27;;;18.70;75.40;;;;;;5071537;28;20819;-76
2022/10/27 07:56:11;;;;;;;11.27;4.63;;;18.80;75.40;;;;;;5071554;28;20256;-76
2022/10/27 07:58:39;;;;;;;14.23;4.97;;;18.80;75.00;;;;;;5068898;28;20245;-76
2022/10/27 08:01:07;;;;;;;8.87;4.37;;;18.90;75.00;;;;;;5067863;28;20723;-76
2022/10/27 08:03:36;;;;;;;9.57;4.77;;;19.00;75.00;;;;;;5066757;28;20248;-76
2022/10/27 08:06:09;;;;;;;12.10;4.17;;;19.10;74.80;;;;;;5069550;28;20274;-75
2022/10/27 08:08:37;;;;;;;9.50;4.40;;;19.10;74.70;;;;;;5067515;28;20663;-75
2022/10/27 08:11:06;;;;;;;8.40;5.07;;;19.20;74.60;;;;;;5072266;28;20210;-75
2022/10/27 08:13:35;;;;;;;9.87;4.23;;;19.30;74.30;;;;;;5071459;28;20209;-75
2022/10/27 08:16:04;;;;;;;8.63;4.23;;;19.40;74.20;;;;;;5070474;28;20199;-76
2022/10/27 08:18:32;;;;;;;8.20;4.30;;;19.40;74.00;;;;;;5072384;28;20202;-75
2022/10/27 08:21:03;;;;;;;11.83;4.60;;;19.50;74.10;;;;;;5068843;28;20214;-76
2022/10/27 08:23:31;;;;;;;7.93;4.30;;;19.50;73.60;;;;;;5070700;28;20272;-75
2022/10/27 08:25:59;;;;;;;9.70;4.47;;;19.60;73.60;;;;;;5069820;28;20194;-75
2022/10/27 08:28:28;;;;;;;9.30;4.40;;;19.60;73.30;;;;;;5071103;28;20202;-76
2022/10/27 08:30:58;;;;;;;12.13;5.00;;;19.70;73.30;;;;;;5068124;28;20316;-77
2022/10/27 08:33:26;;;;;;;9.60;4.23;;;19.80;73.10;;;;;;5070582;28;20197;-75
2022/10/27 08:35:55;;;;;;;7.93;3.97;;;19.80;73.10;;;;;;5071454;28;20237;-75
2022/10/27 08:38:23;;;;;;;8.82;3.97;;;19.80;72.60;;;;;;5058937;28;20198;-75
2022/10/27 08:41:06;;;;;;;11.17;4.57;;;19.90;72.50;;;;;;5067856;28;20247;-76
2022/10/27 08:43:51;;;;;;;6.53;3.63;;;20.00;72.40;;;;;;5071745;28;20683;-76
2022/10/27 08:46:26;;;;;;;7.33;4.30;;;20.00;71.90;;;;;;5070613;28;20236;-75
2022/10/27 08:48:59;;;;;;;6.72;3.65;;;20.10;71.90;;;;;;5070412;28;20615;-75
2022/10/27 08:51:30;;;;;;;11.95;4.25;;;20.20;72.00;;;;;;5070160;28;20222;-75
2022/10/27 08:53:59;;;;;;;11.20;4.45;;;20.20;71.50;;;;;;5067947;28;20227;-75
2022/10/27 08:56:35;;;;;;;8.80;4.60;;;20.30;71.30;;;;;;5069648;28;20249;-77
2022/10/27 08:59:04;;;;;;;8.95;4.20;;;20.40;71.20;;;;;;5071770;28;20201;-76
2022/10/27 09:01:42;;;;;;;7.75;4.22;;;20.40;70.90;;;;;;5070345;28;20240;-75
2022/10/27 09:04:30;;;;;;;8.45;4.60;;;20.40;70.60;;;;;;5069136;28;20615;-75
2022/10/27 09:07:10;;;;;;;6.00;3.90;;;20.50;70.20;;;;;;5067652;28;20194;-76
2022/10/27 09:09:46;;;;;;;9.63;4.60;;;20.60;70.00;;;;;;5069595;28;20610;-75
2022/10/27 09:12:26;;;;;;;10.05;3.88;;;20.60;69.50;;;;;;5058551;28;20692;-75
2022/10/27 09:15:18;;;;;;;11.90;4.53;;;20.70;68.80;;;;;;5070165;28;20198;-74
2022/10/27 09:17:53;;;;;;;7.05;3.65;;;20.70;68.50;;;;;;5054740;28;20199;-75
2022/10/27 09:20:28;;;;;;;9.35;3.42;;;20.80;68.90;;;;;;5069181;28;20194;-76
2022/10/27 09:22:59;;;;;;;7.68;3.53;;;20.80;68.70;;;;;;5069730;28;20194;-76
2022/10/27 09:25:29;;;;;;;7.22;3.08;;;20.90;68.80;;;;;;5070243;28;20190;-76
2022/10/27 09:28:00;;;;;;;6.70;3.22;;;20.90;68.70;;;;;;5069573;28;20229;-76
2022/10/27 09:30:34;;;;;;;9.93;3.08;;;21.00;68.40;;;;;;5065133;28;20421;-75
2022/10/27 09:33:14;;;;;;;3.08;1.83;;;21.10;67.90;;;;;;5070562;28;20250;-76
2022/10/27 09:35:42;;;;;;;4.00;1.60;;;21.10;68.10;;;;;;5067688;28;20202;-77
2022/10/27 09:38:14;;;;;;;3.92;1.92;;;21.20;67.20;;;;;;5075515;28;20217;-76
2022/10/27 09:40:43;;;;;;;5.03;1.77;;;21.20;66.90;;;;;;5070345;28;20197;-76
2022/10/27 09:43:12;;;;;;;4.70;1.63;;;21.30;66.40;;;;;;5074705;28;20285;-78
2022/10/27 09:45:42;;;;;;;2.95;1.58;;;21.30;66.20;;;;;;5071235;28;20655;-77
2022/10/27 09:48:20;;;;;;;4.07;1.95;;;21.30;64.70;;;;;;5071352;28;20205;-76
2022/10/27 09:50:53;;;;;;;2.95;1.63;;;21.40;65.20;;;;;;5073623;28;20264;-77
2022/10/27 09:53:37;;;;;;;4.88;1.92;;;21.50;65.50;;;;;;5072239;28;20233;-76
2022/10/27 09:56:08;;;;;;;3.00;1.90;;;21.50;65.10;;;;;;5070166;28;20247;-76
2022/10/27 09:58:47;;;;;;;5.53;1.73;;;21.60;65.00;;;;;;5076647;28;20194;-75
2022/10/27 10:01:15;;;;;;;6.55;2.15;;;21.60;64.70;;;;;;5066209;28;20198;-77
2022/10/27 10:04:00;;;;;;;3.63;1.70;;;21.70;64.40;;;;;;5063924;28;20202;-77
2022/10/27 10:06:35;;;;;;;3.65;1.60;;;21.70;62.50;;;;;;5075701;28;20202;-76
2022/10/27 10:09:24;;;;;;;4.30;1.85;;;21.70;62.40;;;;;;5072011;28;20224;-76
2022/10/27 10:12:11;;;;;;;5.43;1.85;;;21.80;60.60;;;;;;5071739;28;20709;-77
2022/10/27 10:14:42;;;;;;;3.33;1.60;;;21.80;61.10;;;;;;5076322;28;20217;-77
2022/10/27 10:17:22;;;;;;;4.55;1.90;;;21.80;61.60;;;;;;5075154;28;20251;-77
2022/10/27 10:19:54;;;;;;;5.65;1.60;;;21.80;60.90;;;;;;5063330;28;20198;-77
2022/10/27 10:22:27;;;;;;;6.88;2.38;;;21.90;61.20;;;;;;5078942;28;20327;-77
2022/10/27 10:25:23;;;;;;;3.63;2.05;;;21.90;60.60;;;;;;5075841;28;20190;-77
2022/10/27 10:27:58;;;;;;;7.00;1.73;;;22.00;60.80;;;;;;5080641;28;20564;-77
2022/10/27 10:30:26;;;;;;;2.67;1.58;;;22.00;60.80;;;;;;5078211;28;20248;-76
2022/10/27 10:32:56;;;;;;;3.92;1.83;;;22.10;60.00;;;;;;5062129;28;20719;-75
2022/10/27 10:35:45;;;;;;;5.15;1.83;;;22.10;60.30;;;;;;5060316;28;20255;-77
2022/10/27 10:38:29;;;;;;;3.85;1.70;;;22.20;60.30;;;;;;5071464;28;20611;-78
2022/10/27 10:41:12;;;;;;;3.88;2.17;;;22.20;60.50;;;;;;5071175;28;20189;-77
2022/10/27 10:43:40;;;;;;;4.30;1.80;;;22.20;59.80;;;;;;5074370;28;20194;-78
2022/10/27 10:46:20;;;;;;;3.13;1.77;;;22.20;59.60;;;;;;5070417;28;20194;-77
2022/10/27 10:48:51;;;;;;;4.25;1.85;;;22.30;59.70;;;;;;5071983;28;20218;-78
2022/10/27 10:51:29;;;;;;;5.72;1.80;;;22.30;59.30;;;;;;5069721;28;20194;-78
2022/10/27 10:54:02;;;;;;;4.50;1.85;;;22.40;59.40;;;;;;5073255;28;20230;-75
2022/10/27 10:56:35;;;;;;;3.35;2.03;;;22.40;59.30;;;;;;5079254;28;20202;-77
2022/10/27 10:59:07;;;;;;;8.88;2.33;;;22.50;59.10;;;;;;5078054;28;20229;-77
2022/10/27 11:01:45;;;;;;;6.75;2.05;;;22.50;58.90;;;;;;5072365;28;20248;-77
2022/10/27 11:04:27;;;;;;;3.22;1.52;;;22.50;58.90;;;;;;5077174;28;20742;-76
2022/10/27 11:07:15;;;;;;;2.83;1.63;;;22.60;58.90;;;;;;5068135;28;20200;-76
2022/10/27 11:09:52;;;;;;;4.10;1.65;;;22.60;58.70;;;;;;5070979;28;20698;-77
2022/10/27 11:12:30;;;;;;;4.43;1.80;;;22.60;58.50;;;;;;5070468;28;20630;-76
2022/10/27 11:15:00;;;;;;;3.10;1.70;;;22.60;58.70;;;;;;5073580;28;20720;-76
2022/10/27 11:17:33;;;;;;;3.67;1.92;;;22.60;56.70;;;;;;5072034;28;20197;-75
2022/10/27 11:20:05;;;;;;;3.10;1.80;;;22.70;57.40;;;;;;5073393;28;20220;-76
2022/10/27 11:22:36;;;;;;;6.97;2.38;;;22.70;57.80;;;;;;5066598;28;20187;-76
2022/10/27 11:25:07;;;;;;;4.78;1.85;;;22.70;57.90;;;;;;5070335;28;20195;-79
2022/10/27 11:27:45;;;;;;;5.90;1.90;;;22.70;57.80;;;;;;5070263;28;20237;-77
2022/10/27 11:30:22;;;;;;;6.25;2.05;;;22.80;58.00;;;;;;5072472;28;20324;-77
2022/10/27 11:33:03;;;;;;;5.93;1.92;;;22.80;57.80;;;;;;5068668;28;20230;-76
2022/10/27 11:35:37;;;;;;;4.95;2.28;;;22.80;57.90;;;;;;5065763;28;21032;-78
2022/10/27 11:38:15;;;;;;;6.57;2.10;;;22.90;57.80;;;;;;5069646;28;20268;-77
2022/10/27 11:40:50;;;;;;;4.85;1.98;;;22.90;57.00;;;;;;5066744;28;20216;-76
2022/10/27 11:43:25;;;;;;;4.80;1.70;;;22.90;57.30;;;;;;5078760;28;20218;-75
2022/10/27 11:46:00;;;;;;;8.55;2.00;;;23.00;57.50;;;;;;5072006;28;20774;-75
2022/10/27 11:48:35;;;;;;;6.75;2.03;;;23.00;56.50;;;;;;5068075;28;20198;-74
2022/10/27 11:51:07;;;;;;;7.47;1.70;;;23.00;56.90;;;;;;5075722;28;20236;-74
2022/10/27 11:53:37;;;;;;;6.00;2.05;;;23.00;56.80;;;;;;5068764;28;20230;-78
2022/10/27 11:56:35;;;;;;;4.95;1.80;;;23.10;56.70;;;;;;5074823;28;20199;-75
2022/10/27 11:59:15;;;;;;;4.47;1.95;;;23.10;55.80;;;;;;5074672;28;20547;-76
2022/10/27 12:01:56;;;;;;;3.90;2.00;;;23.10;56.00;;;;;;5073798;28;20256;-75
2022/10/27 12:04:36;;;;;;;3.53;1.58;;;23.10;56.20;;;;;;5069912;28;20202;-76
2022/10/27 12:07:12;;;;;;;3.30;1.90;;;23.10;56.10;;;;;;5075062;28;20254;-75
2022/10/27 12:09:57;;;;;;;5.45;1.67;;;23.20;56.30;;;;;;5070718;28;20627;-74
2022/10/27 12:12:34;;;;;;;5.63;1.77;;;23.20;56.10;;;;;;5067953;28;20264;-75
2022/10/27 12:15:09;;;;;;;8.25;2.50;;;23.20;56.20;;;;;;5070458;28;20214;-75
2022/10/27 12:17:43;;;;;;;3.50;2.10;;;23.30;56.20;;;;;;5062622;28;20236;-75
2022/10/27 12:20:16;;;;;;;6.43;1.48;;;23.30;56.20;;;;;;5067784;28;20243;-74
2022/10/27 12:22:51;;;;;;;4.22;1.63;;;23.30;56.10;;;;;;5071706;28;20245;-76
2022/10/27 12:25:27;;;;;;;6.05;1.67;;;23.30;55.90;;;;;;5071137;28;20288;-74
2022/10/27 12:27:57;;;;;;;4.55;1.63;;;23.40;55.70;;;;;;5075409;28;20867;-78
2022/10/27 12:30:26;;;;;;;2.80;1.67;;;23.40;55.80;;;;;;5072982;28;20195;-76
2022/10/27 12:33:01;;;;;;;6.13;1.60;;;23.40;55.60;;;;;;5071428;28;20218;-74
2022/10/27 12:35:39;;;;;;;3.97;1.70;;;23.50;55.50;;;;;;5076837;28;20235;-76
2022/10/27 12:38:16;;;;;;;7.63;2.05;;;23.40;55.40;;;;;;5074887;28;20200;-75
2022/10/27 12:40:53;;;;;;;4.40;1.58;;;23.40;55.60;;;;;;5071751;28;20635;-75
2022/10/27 12:43:26;;;;;;;5.13;1.48;;;23.40;55.30;;;;;;5070772;28;20663;-77
2022/10/27 12:46:20;;;;;;;6.85;1.73;;;23.40;55.30;;;;;;5075162;28;20217;-76
2022/10/27 12:49:02;;;;;;;2.25;1.48;;;23.40;55.20;;;;;;5079034;28;20252;-76
2022/10/27 12:51:36;;;;;;;2.67;1.40;;;23.40;55.10;;;;;;5065195;28;20281;-75
2022/10/27 12:54:18;;;;;;;4.82;2.17;;;23.40;55.40;;;;;;5071923;28;20274;-76
2022/10/27 12:56:57;;;;;;;3.58;1.40;;;23.40;55.50;;;;;;5068645;28;20214;-75
2022/10/27 12:59:35;;;;;;;4.78;1.60;;;23.40;55.60;;;;;;5066279;28;20614;-75
2022/10/27 13:02:10;;;;;;;4.55;1.83;;;23.50;55.80;;;;;;5071833;28;20190;-76
2022/10/27 13:05:06;;;;;;;9.85;1.75;;;23.60;55.90;;;;;;5057446;28;20201;-76
2022/10/27 13:08:02;;;;;;;2.80;1.55;;;23.60;55.70;;;;;;5067610;28;20222;-76
2022/10/27 13:10:45;;;;;;;3.58;1.75;;;23.50;55.50;;;;;;5065333;28;20281;-75
2022/10/27 13:13:40;;;;;;;3.97;1.48;;;23.40;54.90;;;;;;5072677;28;20634;-76